Time;durP1;ratioP1;P1;durP2;ratioP2;P2;SDS_P1;SDS_P2;PMS_P1;PMS_P2;Temp;Humidity;BMP_temperature;BMP_pressure;BME280_temperature;BME280_humidity;BME280_pressure;Samples;Min_cycle;Max_cycle;Signal;HPM_P1;HPM_P2
2023/08/05 00:01:48;;;;;;;;;;;15.00;99.90;;;;;;12552709;28;19956;-37
2023/08/05 00:07:50;;;;;;;;;;;14.70;99.90;;;;;;12543699;28;19994;-35
2023/08/05 00:13:52;;;;;;;;;;;14.80;99.90;;;;;;12540078;28;19935;-36
2023/08/05 00:19:54;;;;;;;;;;;15.00;99.90;;;;;;12548314;28;20373;-35
2023/08/05 00:25:56;;;;;;;;;;;15.10;99.90;;;;;;12541801;28;19928;-35
2023/08/05 00:31:57;;;;;;;;;;;15.00;99.90;;;;;;12545704;28;20020;-36
2023/08/05 00:37:59;;;;;;;;;;;15.00;99.90;;;;;;12544477;28;20344;-35
2023/08/05 00:44:01;;;;;;;;;;;15.00;99.90;;;;;;12557567;28;19932;-35
2023/08/05 00:50:03;;;;;;;;;;;15.00;99.90;;;;;;12542088;28;20000;-35
2023/08/05 00:56:05;;;;;;;;;;;14.70;99.90;;;;;;12545198;28;20012;-35
2023/08/05 01:02:07;;;;;;;;;;;14.60;99.90;;;;;;12547181;28;20027;-35
2023/08/05 01:08:09;;;;;;;;;;;14.40;99.90;;;;;;12552234;28;19924;-35
2023/08/05 01:14:11;;;;;;;;;;;14.40;99.90;;;;;;12551431;28;19924;-35
2023/08/05 01:20:13;;;;;;;;;;;14.50;99.90;;;;;;12551008;28;20015;-35
2023/08/05 01:26:15;;;;;;;;;;;14.40;99.90;;;;;;12547171;28;19928;-35
2023/08/05 01:32:17;;;;;;;;;;;14.40;99.90;;;;;;12548984;28;19928;-35
2023/08/05 01:38:19;;;;;;;;;;;14.40;99.90;;;;;;12555433;28;19928;-35
2023/08/05 01:44:22;;;;;;;;;;;14.50;99.90;;;;;;12554131;28;20027;-35
2023/08/05 01:50:23;;;;;;;;;;;14.40;99.90;;;;;;12554860;28;20023;-35
2023/08/05 01:56:25;;;;;;;;;;;14.40;99.90;;;;;;12564183;28;19955;-35
2023/08/05 02:02:27;;;;;;;;;;;14.40;99.90;;;;;;12557401;28;19950;-36
2023/08/05 02:08:28;;;;;;;;;;;14.50;99.90;;;;;;12547984;28;20393;-36
2023/08/05 02:14:30;;;;;;;;;;;14.50;99.90;;;;;;12562246;28;20390;-35
2023/08/05 02:20:34;;;;;;;;;;;14.70;99.90;;;;;;12546700;28;19963;-39
2023/08/05 02:26:36;;;;;;;;;;;14.70;99.90;;;;;;12561552;28;20011;-35
2023/08/05 02:32:37;;;;;;;;;;;14.60;99.90;;;;;;12549309;28;19929;-35
2023/08/05 02:38:39;;;;;;;;;;;14.70;99.90;;;;;;12570598;28;19925;-35
2023/08/05 02:44:41;;;;;;;;;;;14.80;99.90;;;;;;12550052;28;19975;-35
2023/08/05 02:50:43;;;;;;;;;;;14.50;99.90;;;;;;12553362;28;19991;-35
2023/08/05 02:56:44;;;;;;;;;;;14.70;99.90;;;;;;12549432;28;19925;-35
2023/08/05 03:02:47;;;;;;;;;;;14.60;99.90;;;;;;12544882;28;19929;-35
2023/08/05 03:08:49;;;;;;;;;;;14.70;99.90;;;;;;12533438;28;19933;-35
2023/08/05 03:14:51;;;;;;;;;;;14.70;99.90;;;;;;12558107;28;19932;-35
2023/08/05 03:20:53;;;;;;;;;;;14.80;99.90;;;;;;12541424;28;19929;-35
2023/08/05 03:26:55;;;;;;;;;;;14.80;99.90;;;;;;12539906;28;19928;-35
2023/08/05 03:32:57;;;;;;;;;;;14.80;99.90;;;;;;12576128;28;19940;-36
2023/08/05 03:38:58;;;;;;;;;;;14.70;99.90;;;;;;12547172;28;19924;-35
2023/08/05 03:45:00;;;;;;;;;;;14.70;99.90;;;;;;12539122;28;19974;-36
2023/08/05 03:51:02;;;;;;;;;;;14.40;99.90;;;;;;12533719;28;19970;-35
2023/08/05 03:57:08;;;;;;;;;;;14.40;99.90;;;;;;12542285;28;20377;-35
2023/08/05 04:03:10;;;;;;;;;;;14.40;99.90;;;;;;12552431;28;19925;-35
2023/08/05 04:09:12;;;;;;;;;;;14.50;99.90;;;;;;12533141;28;19929;-35
2023/08/05 04:15:14;;;;;;;;;;;14.30;99.90;;;;;;12546238;28;19972;-35
2023/08/05 04:21:16;;;;;;;;;;;14.30;99.90;;;;;;12541994;28;19925;-36
2023/08/05 04:27:18;;;;;;;;;;;15.80;99.90;;;;;;12524647;28;19929;-35
2023/08/05 04:33:20;;;;;;;;;;;16.80;99.90;;;;;;12530751;28;19931;-36
2023/08/05 04:39:22;;;;;;;;;;;16.60;99.90;;;;;;12546156;28;20043;-35
2023/08/05 04:45:24;;;;;;;;;;;15.80;99.90;;;;;;12558233;28;19932;-35
2023/08/05 04:51:25;;;;;;;;;;;15.40;99.90;;;;;;12546698;28;19932;-35
2023/08/05 04:57:27;;;;;;;;;;;15.20;99.90;;;;;;12548398;28;20161;-35
2023/08/05 05:03:29;;;;;;;;;;;14.90;99.90;;;;;;12556450;28;19925;-35
2023/08/05 05:09:32;;;;;;;;;;;15.50;99.90;;;;;;12546690;28;19924;-35
2023/08/05 05:15:34;;;;;;;;;;;16.10;99.90;;;;;;12557382;28;19925;-35
2023/08/05 05:21:36;;;;;;;;;;;16.40;99.90;;;;;;12545388;28;19932;-35
2023/08/05 05:27:37;;;;;;;;;;;16.30;99.90;;;;;;12543447;28;19978;-35
2023/08/05 05:33:39;;;;;;;;;;;16.10;99.90;;;;;;12569695;28;19970;-36
2023/08/05 05:39:41;;;;;;;;;;;15.90;99.90;;;;;;12565604;28;19956;-35
2023/08/05 05:45:43;;;;;;;;;;;15.70;99.90;;;;;;12552790;28;20456;-35
2023/08/05 05:51:47;;;;;;;;;;;15.70;99.90;;;;;;12553829;28;19929;-35
2023/08/05 05:57:49;;;;;;;;;;;15.50;99.90;;;;;;12556193;28;19924;-37
2023/08/05 06:03:51;;;;;;;;;;;15.40;99.90;;;;;;12558700;28;20006;-35
2023/08/05 06:09:53;;;;;;;;;;;15.50;99.90;;;;;;12545085;28;20292;-35
2023/08/05 06:15:55;;;;;;;;;;;15.30;99.90;;;;;;12551694;28;20349;-36
2023/08/05 06:21:56;;;;;;;;;;;15.30;99.90;;;;;;12548017;28;19951;-35
2023/08/05 06:27:58;;;;;;;;;;;15.30;99.90;;;;;;12552647;28;20066;-35
2023/08/05 06:34:00;;;;;;;;;;;15.50;99.90;;;;;;12559717;28;19924;-35
2023/08/05 06:40:02;;;;;;;;;;;15.70;99.90;;;;;;12547440;28;19932;-35
2023/08/05 06:46:04;;;;;;;;;;;15.30;99.90;;;;;;12564660;28;19928;-36
2023/08/05 06:52:06;;;;;;;;;;;15.40;99.90;;;;;;12533408;28;20470;-35
2023/08/05 06:58:08;;;;;;;;;;;15.70;99.90;;;;;;12544800;28;19929;-37
2023/08/05 07:04:10;;;;;;;;;;;15.70;99.90;;;;;;12558384;28;19932;-35
2023/08/05 07:10:12;;;;;;;;;;;16.20;99.90;;;;;;12569513;28;19935;-35
2023/08/05 07:16:14;;;;;;;;;;;16.00;99.90;;;;;;12539258;28;20296;-35
2023/08/05 07:22:16;;;;;;;;;;;16.10;99.90;;;;;;12571301;28;19925;-35
2023/08/05 07:28:18;;;;;;;;;;;15.80;99.90;;;;;;12550358;28;19932;-35
2023/08/05 07:34:20;;;;;;;;;;;16.30;99.90;;;;;;12568846;28;20379;-35
2023/08/05 07:40:22;;;;;;;;;;;16.20;99.90;;;;;;12552104;28;20284;-36
2023/08/05 07:46:25;;;;;;;;;;;16.30;99.90;;;;;;12564088;28;19928;-35
2023/08/05 07:52:27;;;;;;;;;;;16.40;99.90;;;;;;12541597;28;20305;-35
2023/08/05 07:58:29;;;;;;;;;;;16.50;99.90;;;;;;12534226;22;20036;-35
2023/08/05 08:04:34;;;;;;;;;;;16.20;99.90;;;;;;12522896;28;19964;-35
2023/08/05 08:10:35;;;;;;;;;;;16.30;99.90;;;;;;12516292;28;19925;-34
2023/08/05 08:16:37;;;;;;;;;;;16.40;99.90;;;;;;12522508;28;19970;-34
2023/08/05 08:22:39;;;;;;;;;;;16.40;99.90;;;;;;12519268;28;19994;-35
2023/08/05 08:28:40;;;;;;;;;;;16.60;99.90;;;;;;12513744;28;19974;-36
2023/08/05 08:34:42;;;;;;;;;;;16.50;99.90;;;;;;12523153;28;20311;-37
2023/08/05 08:40:47;;;;;;;;;;;16.60;99.90;;;;;;12518845;28;19932;-37
2023/08/05 08:46:49;;;;;;;;;;;16.70;99.90;;;;;;12517484;28;20226;-36
2023/08/05 08:52:53;;;;;;;;;;;17.00;99.90;;;;;;12508884;28;20792;-36
2023/08/05 08:58:54;;;;;;;;;;;17.00;99.90;;;;;;12517572;28;19936;-37
2023/08/05 09:04:56;;;;;;;;;;;17.10;99.90;;;;;;12526079;28;19924;-37
2023/08/05 09:10:58;;;;;;;;;;;17.40;99.90;;;;;;12520013;28;19929;-36
2023/08/05 09:17:00;;;;;;;;;;;17.70;99.90;;;;;;12508634;28;19933;-36
2023/08/05 09:23:03;;;;;;;;;;;17.70;99.90;;;;;;12515450;28;20352;-37
2023/08/05 09:29:05;;;;;;;;;;;17.90;99.90;;;;;;12508507;28;19986;-42
2023/08/05 09:35:10;;;;;;;;;;;18.30;99.90;;;;;;12521060;28;20330;-36
2023/08/05 09:41:12;;;;;;;;;;;18.40;99.90;;;;;;12526449;28;19971;-36
2023/08/05 09:47:17;;;;;;;;;;;18.60;99.90;;;;;;12523321;28;20022;-36
2023/08/05 09:53:21;;;;;;;;;;;18.90;99.90;;;;;;12519263;28;19970;-36
2023/08/05 09:59:24;;;;;;;;;;;18.80;99.90;;;;;;12523432;28;20338;-36
2023/08/05 10:05:26;;;;;;;;;;;18.70;99.90;;;;;;12521583;28;20522;-36
2023/08/05 10:11:28;;;;;;;;;;;19.20;99.90;;;;;;12528664;28;20510;-36
2023/08/05 10:17:30;;;;;;;;;;;19.50;99.90;;;;;;12519868;28;19932;-36
2023/08/05 10:23:34;;;;;;;;;;;20.20;99.90;;;;;;12527590;28;19925;-36
2023/08/05 10:29:49;;;;;;;;;;;20.20;99.90;;;;;;12522718;28;19925;-36
2023/08/05 10:35:59;;;;;;;;;;;20.30;99.90;;;;;;12528959;28;20011;-36
2023/08/05 10:42:16;;;;;;;;;;;20.60;99.90;;;;;;12531446;28;20435;-36
2023/08/05 10:48:18;;;;;;;;;;;20.80;99.90;;;;;;12515431;28;20135;-36
2023/08/05 10:54:20;;;;;;;;;;;20.20;99.90;;;;;;12519185;28;20625;-36
2023/08/05 11:00:22;;;;;;;;;;;20.00;99.90;;;;;;12509990;28;19972;-36
2023/08/05 11:06:25;;;;;;;;;;;20.20;99.90;;;;;;12530041;28;19925;-36
2023/08/05 11:12:29;;;;;;;;;;;19.90;99.90;;;;;;12516105;28;20356;-36
2023/08/05 11:18:31;;;;;;;;;;;20.50;99.90;;;;;;12521120;28;20331;-37
2023/08/05 11:24:32;;;;;;;;;;;20.90;99.90;;;;;;12518949;28;20016;-37
2023/08/05 11:30:38;;;;;;;;;;;20.40;99.90;;;;;;12513973;28;19932;-36
2023/08/05 11:36:39;;;;;;;;;;;20.40;99.90;;;;;;12516226;28;19925;-36
2023/08/05 11:42:42;;;;;;;;;;;20.30;99.90;;;;;;12525181;28;19928;-36
2023/08/05 11:48:44;;;;;;;;;;;20.90;99.90;;;;;;12525809;28;20070;-36
2023/08/05 11:54:55;;;;;;;;;;;20.50;99.90;;;;;;12519362;28;19967;-36
2023/08/05 12:01:00;;;;;;;;;;;20.30;99.90;;;;;;12508567;28;20066;-36
2023/08/05 12:07:02;;;;;;;;;;;20.00;99.90;;;;;;12514803;28;20292;-37
2023/08/05 12:13:04;;;;;;;;;;;20.80;99.90;;;;;;12516345;28;20019;-37
2023/08/05 12:19:09;;;;;;;;;;;21.60;99.90;;;;;;12523949;28;19968;-37
2023/08/05 12:25:11;;;;;;;;;;;22.10;99.90;;;;;;12513781;28;19933;-38
2023/08/05 12:31:14;;;;;;;;;;;21.80;99.90;;;;;;12517997;28;19932;-37
2023/08/05 12:37:16;;;;;;;;;;;21.80;99.90;;;;;;12518926;28;20266;-37
2023/08/05 12:43:18;;;;;;;;;;;21.30;99.90;;;;;;12513621;28;19955;-36
2023/08/05 12:49:19;;;;;;;;;;;21.20;99.90;;;;;;12500458;28;19933;-37
2023/08/05 12:55:21;;;;;;;;;;;21.10;99.90;;;;;;12520739;28;19972;-37
2023/08/05 13:01:23;;;;;;;;;;;21.10;99.90;;;;;;12508267;28;19933;-36
2023/08/05 13:07:25;;;;;;;;;;;20.80;99.90;;;;;;12527022;28;19999;-37
2023/08/05 13:13:27;;;;;;;;;;;21.00;99.90;;;;;;12534678;28;19932;-36
2023/08/05 13:19:28;;;;;;;;;;;20.80;99.90;;;;;;12519116;28;20011;-36
2023/08/05 13:25:30;;;;;;;;;;;20.70;99.90;;;;;;12527836;28;19932;-36
2023/08/05 13:31:32;;;;;;;;;;;20.70;99.90;;;;;;12522402;28;19986;-37
2023/08/05 13:37:34;;;;;;;;;;;20.80;99.90;;;;;;12532742;28;19967;-37
2023/08/05 13:43:36;;;;;;;;;;;20.80;99.90;;;;;;12530949;28;19979;-37
2023/08/05 13:49:37;;;;;;;;;;;20.90;99.90;;;;;;12523850;28;20647;-37
2023/08/05 13:55:39;;;;;;;;;;;20.90;99.90;;;;;;12526419;28;20845;-38
2023/08/05 14:01:43;;;;;;;;;;;20.80;99.90;;;;;;12532584;28;19948;-36
2023/08/05 14:07:45;;;;;;;;;;;20.70;99.90;;;;;;12522624;28;20172;-36
2023/08/05 14:13:47;;;;;;;;;;;20.80;99.90;;;;;;12525329;28;19990;-37
2023/08/05 14:19:49;;;;;;;;;;;20.90;99.90;;;;;;12527398;28;19925;-37
2023/08/05 14:25:50;;;;;;;;;;;20.90;99.90;;;;;;12512553;28;19972;-37
2023/08/05 14:31:52;;;;;;;;;;;21.10;99.90;;;;;;12529924;28;19932;-38
2023/08/05 14:37:54;;;;;;;;;;;21.30;99.90;;;;;;12521389;28;20012;-37
2023/08/05 14:43:56;;;;;;;;;;;21.70;99.90;;;;;;12529370;28;19924;-37
2023/08/05 14:49:58;;;;;;;;;;;21.80;99.90;;;;;;12516896;28;20051;-37
2023/08/05 14:56:00;;;;;;;;;;;22.20;99.90;;;;;;12520397;28;20019;-36
2023/08/05 15:02:02;;;;;;;;;;;22.10;99.90;;;;;;12529894;28;19968;-36
2023/08/05 15:08:03;;;;;;;;;;;22.10;99.90;;;;;;12512274;28;19929;-39
2023/08/05 15:14:05;;;;;;;;;;;22.10;99.90;;;;;;12505123;28;20518;-36
2023/08/05 15:20:07;;;;;;;;;;;22.10;99.90;;;;;;12523825;28;19925;-36
2023/08/05 15:26:09;;;;;;;;;;;22.50;99.90;;;;;;12517022;28;20024;-37
2023/08/05 15:32:11;;;;;;;;;;;22.50;99.90;;;;;;12510129;28;19929;-36
2023/08/05 15:38:13;;;;;;;;;;;22.60;99.90;;;;;;12524749;28;19929;-37
2023/08/05 15:44:14;;;;;;;;;;;22.20;99.90;;;;;;12524228;28;20384;-38
2023/08/05 15:50:19;;;;;;;;;;;21.70;99.90;;;;;;12516782;28;19929;-37
2023/08/05 15:56:21;;;;;;;;;;;21.30;99.90;;;;;;12524916;28;19974;-36
2023/08/05 16:02:23;;;;;;;;;;;21.10;99.90;;;;;;12513957;28;19948;-37
2023/08/05 16:08:26;;;;;;;;;;;20.90;99.90;;;;;;12523445;28;20218;-37
2023/08/05 16:14:28;;;;;;;;;;;20.80;99.90;;;;;;12521611;28;20459;-37
2023/08/05 16:20:30;;;;;;;;;;;20.50;99.90;;;;;;12516395;28;19956;-36
2023/08/05 16:26:32;;;;;;;;;;;20.40;99.90;;;;;;12501568;28;20360;-37
2023/08/05 16:32:33;;;;;;;;;;;20.30;99.90;;;;;;12522837;28;19929;-36
2023/08/05 16:38:36;;;;;;;;;;;20.20;99.90;;;;;;12518755;28;19925;-36
2023/08/05 16:44:37;;;;;;;;;;;20.10;99.90;;;;;;12516427;28;20277;-36
2023/08/05 16:50:39;;;;;;;;;;;19.90;99.90;;;;;;12531718;28;20396;-36
2023/08/05 16:56:41;;;;;;;;;;;19.80;99.90;;;;;;12521652;28;20015;-36
2023/08/05 17:02:43;;;;;;;;;;;19.70;99.90;;;;;;12534980;28;19939;-38
2023/08/05 17:08:44;;;;;;;;;;;19.60;99.90;;;;;;12525420;28;19928;-37
2023/08/05 17:14:46;;;;;;;;;;;19.60;99.90;;;;;;12523407;28;20021;-36
2023/08/05 17:20:51;;;;;;;;;;;18.20;99.90;;;;;;12524294;28;20032;-36
2023/08/05 17:26:53;;;;;;;;;;;17.50;99.90;;;;;;12522596;28;20027;-36
2023/08/05 17:32:55;;;;;;;;;;;17.10;99.90;;;;;;12525160;28;20016;-36
2023/08/05 17:38:56;;;;;;;;;;;16.40;99.90;;;;;;12532269;28;19929;-36
2023/08/05 17:44:58;;;;;;;;;;;16.30;99.90;;;;;;12532864;28;19929;-35
2023/08/05 17:51:00;;;;;;;;;;;15.90;99.90;;;;;;12519463;28;19948;-36
2023/08/05 17:57:02;;;;;;;;;;;15.70;99.90;;;;;;12517920;28;19925;-36
2023/08/05 18:03:03;;;;;;;;;;;15.50;99.90;;;;;;12526109;28;20027;-36
2023/08/05 18:09:06;;;;;;;;;;;15.40;99.90;;;;;;12521047;28;20017;-38
2023/08/05 18:15:07;;;;;;;;;;;15.30;99.90;;;;;;12519500;28;19933;-36
2023/08/05 18:21:09;;;;;;;;;;;15.60;99.90;;;;;;12521593;28;19925;-35
2023/08/05 18:27:11;;;;;;;;;;;15.60;99.90;;;;;;12509817;28;19936;-36
2023/08/05 18:33:13;;;;;;;;;;;15.70;99.90;;;;;;12526035;28;19925;-36
2023/08/05 18:39:15;;;;;;;;;;;15.70;99.90;;;;;;12526036;28;19932;-36
2023/08/05 18:45:17;;;;;;;;;;;15.30;99.90;;;;;;12517971;28;19975;-36
2023/08/05 18:51:19;;;;;;;;;;;15.20;99.90;;;;;;12523244;28;19988;-36
2023/08/05 18:57:20;;;;;;;;;;;15.40;99.90;;;;;;12528344;28;19932;-36
2023/08/05 19:03:22;;;;;;;;;;;15.20;99.90;;;;;;12530544;28;19929;-36
2023/08/05 19:09:25;;;;;;;;;;;15.20;99.90;;;;;;12519392;28;19978;-36
2023/08/05 19:15:26;;;;;;;;;;;15.20;99.90;;;;;;12515919;28;19935;-36
2023/08/05 19:21:28;;;;;;;;;;;15.40;99.90;;;;;;12528409;28;19925;-36
2023/08/05 19:27:30;;;;;;;;;;;15.20;99.90;;;;;;12523792;28;20341;-35
2023/08/05 19:33:50;;;;;;;;;;;15.10;99.90;;;;;;12522438;28;19932;-36
2023/08/05 19:39:52;;;;;;;;;;;15.30;99.90;;;;;;12515074;28;19936;-36
2023/08/05 19:46:07;;;;;;;;;;;15.50;99.90;;;;;;12517516;28;19940;-39
2023/08/05 19:52:09;;;;;;;;;;;15.40;99.90;;;;;;12515341;28;19963;-36
2023/08/05 19:58:11;;;;;;;;;;;15.30;99.90;;;;;;12522230;28;19928;-36
2023/08/05 20:04:12;;;;;;;;;;;15.20;99.90;;;;;;12520335;28;19929;-36
2023/08/05 20:10:14;;;;;;;;;;;15.30;99.90;;;;;;12514650;28;19968;-36
2023/08/05 20:16:16;;;;;;;;;;;15.00;99.90;;;;;;12510035;28;20359;-36
2023/08/05 20:22:18;;;;;;;;;;;15.20;99.90;;;;;;12521932;28;20012;-36
2023/08/05 20:28:22;;;;;;;;;;;15.10;99.90;;;;;;12499939;28;20062;-35
2023/08/05 20:34:26;;;;;;;;;;;14.80;99.90;;;;;;12526870;28;19936;-35
2023/08/05 20:40:28;;;;;;;;;;;14.60;99.90;;;;;;12517602;28;20419;-36
2023/08/05 20:46:30;;;;;;;;;;;14.50;99.90;;;;;;12501734;28;20035;-36
2023/08/05 20:52:32;;;;;;;;;;;14.60;99.90;;;;;;12507272;28;19929;-36
2023/08/05 20:58:35;;;;;;;;;;;14.70;99.90;;;;;;12522020;28;19925;-36
2023/08/05 21:04:36;;;;;;;;;;;14.60;99.90;;;;;;12514784;28;19925;-35
2023/08/05 21:10:38;;;;;;;;;;;14.50;99.90;;;;;;12519481;28;19928;-37
2023/08/05 21:16:40;;;;;;;;;;;14.40;99.90;;;;;;12508355;28;19970;-35
2023/08/05 21:22:42;;;;;;;;;;;14.40;99.90;;;;;;12525708;28;19925;-35
2023/08/05 21:28:43;;;;;;;;;;;14.40;99.90;;;;;;12517875;28;20027;-35
2023/08/05 21:34:45;;;;;;;;;;;14.40;99.90;;;;;;12527715;28;19972;-36
2023/08/05 21:40:48;;;;;;;;;;;14.30;99.90;;;;;;12525061;28;20602;-38
2023/08/05 21:46:49;;;;;;;;;;;14.30;99.90;;;;;;12525825;28;19926;-36
2023/08/05 21:52:51;;;;;;;;;;;14.30;99.90;;;;;;12523606;28;20031;-35
2023/08/05 21:58:53;;;;;;;;;;;14.20;99.90;;;;;;12528816;28;19932;-36
2023/08/05 22:04:55;;;;;;;;;;;14.20;99.90;;;;;;12529133;28;19936;-35
2023/08/05 22:10:56;;;;;;;;;;;14.30;99.90;;;;;;12527815;28;20007;-36
2023/08/05 22:16:58;;;;;;;;;;;14.60;99.90;;;;;;12529325;28;19975;-36
2023/08/05 22:23:00;;;;;;;;;;;14.80;99.90;;;;;;12528546;28;20019;-36
2023/08/05 22:29:01;;;;;;;;;;;14.90;99.90;;;;;;12516938;28;19940;-35
2023/08/05 22:35:03;;;;;;;;;;;15.00;99.90;;;;;;12514936;28;20292;-36
2023/08/05 22:41:05;;;;;;;;;;;14.80;99.90;;;;;;12520509;28;20300;-35
2023/08/05 22:47:07;;;;;;;;;;;14.60;99.90;;;;;;12519350;28;19932;-35
2023/08/05 22:53:09;;;;;;;;;;;14.30;99.90;;;;;;12523538;28;19929;-35
2023/08/05 22:59:10;;;;;;;;;;;14.40;99.90;;;;;;12517851;28;19929;-35
2023/08/05 23:05:12;;;;;;;;;;;14.40;99.90;;;;;;12502979;28;20283;-36
2023/08/05 23:11:14;;;;;;;;;;;14.50;99.90;;;;;;12515124;28;20353;-35
2023/08/05 23:17:16;;;;;;;;;;;14.40;99.90;;;;;;12522980;28;20419;-35
2023/08/05 23:23:17;;;;;;;;;;;14.40;99.90;;;;;;12525428;28;19979;-35
2023/08/05 23:29:19;;;;;;;;;;;14.20;99.90;;;;;;12526037;28;20330;-35
2023/08/05 23:35:21;;;;;;;;;;;14.30;99.90;;;;;;12522988;28;19975;-35
2023/08/05 23:41:23;;;;;;;;;;;14.20;99.90;;;;;;12519449;28;19933;-34
2023/08/05 23:47:24;;;;;;;;;;;14.20;99.90;;;;;;12530607;28;19975;-35
2023/08/05 23:53:26;;;;;;;;;;;14.30;99.90;;;;;;12524355;28;19982;-35
2023/08/05 23:59:28;;;;;;;;;;;14.10;99.90;;;;;;12516229;28;20047;-34
